GLO1447 SBGL-SBSP
Flight info
| Callsign | GLO1447 |
|---|---|
| Flight time | N/A |
| Altitude | 26000 |
| Route | NAXOP UZ45 IBDAL |
| Aircraft | B738/M-SDE2E3FGHIRWXY/LB1 |
Departure
| Time | 2026-05-05 17:13 |
|---|---|
| Airport | Rio Galeão – Tom Jobim International Airport (SBGL) |
Arrival
| Time | N/A |
|---|---|
| Airport | Congonhas–Deputado Freitas Nobre Airport (SBSP) |
| Time | Latitude | Longitude | Altitude | Speed | Heading |
|---|---|---|---|---|---|
| 2026-05-05 16:44 | -22.81636 | -43.24654 | 37 ft | 0 kts | 14° |
| 2026-05-05 17:01 | -22.81647 | -43.24655 | 36 ft | 2 kts | 0° |
| 2026-05-05 17:01 | -22.81657 | -43.24656 | 36 ft | 0 kts | 13° |
| 2026-05-05 17:01 | -22.81671 | -43.24657 | 36 ft | 2 kts | 337° |
| 2026-05-05 17:02 | -22.81681 | -43.24649 | 36 ft | 0 kts | 308° |
| 2026-05-05 17:02 | -22.81685 | -43.24643 | 36 ft | 1 kts | 303° |
| 2026-05-05 17:02 | -22.81685 | -43.24642 | 36 ft | 0 kts | 304° |
| 2026-05-05 17:05 | -22.81685 | -43.24643 | 36 ft | 1 kts | 304° |
| 2026-05-05 17:05 | -22.81654 | -43.24691 | 36 ft | 9 kts | 304° |
| 2026-05-05 17:05 | -22.81617 | -43.24749 | 37 ft | 10 kts | 305° |
| 2026-05-05 17:06 | -22.81577 | -43.24811 | 38 ft | 8 kts | 304° |
| 2026-05-05 17:06 | -22.81527 | -43.24873 | 38 ft | 12 kts | 306° |
| 2026-05-05 17:06 | -22.81474 | -43.24967 | 38 ft | 15 kts | 296° |
| 2026-05-05 17:06 | -22.81424 | -43.25061 | 37 ft | 13 kts | 304° |
| 2026-05-05 17:07 | -22.81364 | -43.25137 | 36 ft | 12 kts | 316° |
| 2026-05-05 17:07 | -22.81313 | -43.25210 | 35 ft | 12 kts | 306° |
| 2026-05-05 17:07 | -22.81258 | -43.25289 | 32 ft | 13 kts | 312° |
| 2026-05-05 17:07 | -22.81179 | -43.25351 | 30 ft | 13 kts | 332° |
| 2026-05-05 17:08 | -22.81091 | -43.25382 | 29 ft | 12 kts | 349° |
| 2026-05-05 17:08 | -22.81007 | -43.25379 | 29 ft | 11 kts | 8° |
| 2026-05-05 17:08 | -22.80948 | -43.25428 | 28 ft | 13 kts | 295° |
| 2026-05-05 17:08 | -22.80905 | -43.25525 | 27 ft | 14 kts | 296° |
| 2026-05-05 17:09 | -22.80845 | -43.25588 | 27 ft | 11 kts | 6° |
| 2026-05-05 17:09 | -22.80774 | -43.25542 | 25 ft | 12 kts | 36° |
| 2026-05-05 17:09 | -22.80703 | -43.25486 | 24 ft | 12 kts | 36° |
| 2026-05-05 17:09 | -22.80637 | -43.25436 | 24 ft | 10 kts | 35° |
| 2026-05-05 17:10 | -22.80588 | -43.25393 | 26 ft | 9 kts | 41° |
| 2026-05-05 17:10 | -22.80510 | -43.25377 | 24 ft | 14 kts | 326° |
| 2026-05-05 17:10 | -22.80423 | -43.25429 | 24 ft | 13 kts | 327° |
| 2026-05-05 17:10 | -22.80352 | -43.25481 | 24 ft | 9 kts | 324° |
| 2026-05-05 17:11 | -22.80338 | -43.25491 | 24 ft | 0 kts | 325° |
| 2026-05-05 17:11 | -22.80337 | -43.25493 | 24 ft | 2 kts | 325° |
| 2026-05-05 17:11 | -22.80261 | -43.25507 | 24 ft | 13 kts | 23° |
| 2026-05-05 17:12 | -22.80183 | -43.25495 | 24 ft | 5 kts | 59° |
| 2026-05-05 17:12 | -22.80183 | -43.25492 | 24 ft | 0 kts | 87° |
| 2026-05-05 17:12 | -22.80123 | -43.25267 | 24 ft | 68 kts | 74° |
| 2026-05-05 17:12 | -22.79936 | -43.24539 | 24 ft | 131 kts | 74° |
| 2026-05-05 17:13 | -22.79641 | -43.23391 | 104 ft | 175 kts | 74° |
| 2026-05-05 17:13 | -22.79298 | -43.22073 | 536 ft | 191 kts | 75° |
| 2026-05-05 17:13 | -22.78997 | -43.20738 | 1397 ft | 178 kts | 76° |
| 2026-05-05 17:13 | -22.78728 | -43.19397 | 1753 ft | 190 kts | 77° |
| 2026-05-05 17:14 | -22.78434 | -43.17944 | 2128 ft | 202 kts | 76° |
| 2026-05-05 17:14 | -22.78105 | -43.16415 | 2434 ft | 218 kts | 76° |
| 2026-05-05 17:14 | -22.77734 | -43.14725 | 2713 ft | 238 kts | 76° |
| 2026-05-05 17:14 | -22.77353 | -43.12966 | 3306 ft | 245 kts | 76° |
| 2026-05-05 17:15 | -22.76966 | -43.11150 | 4057 ft | 246 kts | 76° |
| 2026-05-05 17:15 | -22.76585 | -43.09356 | 4786 ft | 247 kts | 77° |
| 2026-05-05 17:15 | -22.76202 | -43.07561 | 5475 ft | 249 kts | 77° |
| 2026-05-05 17:15 | -22.75854 | -43.05711 | 6161 ft | 252 kts | 83° |
| 2026-05-05 17:16 | -22.75948 | -43.03831 | 6811 ft | 255 kts | 108° |
| 2026-05-05 17:16 | -22.76815 | -43.02184 | 7500 ft | 258 kts | 133° |
| 2026-05-05 17:16 | -22.78211 | -43.00937 | 8235 ft | 260 kts | 146° |
| 2026-05-05 17:16 | -22.79742 | -42.99920 | 8953 ft | 262 kts | 149° |
| 2026-05-05 17:17 | -22.81454 | -42.99187 | 9449 ft | 275 kts | 172° |
| 2026-05-05 17:17 | -22.83393 | -42.99478 | 9903 ft | 290 kts | 203° |
| 2026-05-05 17:17 | -22.84978 | -43.00468 | 10441 ft | 298 kts | 213° |
| 2026-05-05 17:17 | -22.86707 | -43.01793 | 10892 ft | 312 kts | 215° |
| 2026-05-05 17:18 | -22.88525 | -43.03233 | 11357 ft | 327 kts | 216° |
| 2026-05-05 17:18 | -22.90403 | -43.04717 | 11818 ft | 340 kts | 216° |
| 2026-05-05 17:18 | -22.92342 | -43.06239 | 12409 ft | 348 kts | 216° |
| 2026-05-05 17:18 | -22.94310 | -43.07776 | 13117 ft | 352 kts | 215° |
| 2026-05-05 17:19 | -22.96319 | -43.09341 | 13845 ft | 356 kts | 215° |
| 2026-05-05 17:19 | -22.98340 | -43.10915 | 14601 ft | 359 kts | 215° |
| 2026-05-05 17:19 | -23.00366 | -43.12496 | 15347 ft | 362 kts | 215° |
| 2026-05-05 17:19 | -23.02399 | -43.14084 | 16105 ft | 364 kts | 215° |
| 2026-05-05 17:20 | -23.04480 | -43.15709 | 16787 ft | 368 kts | 215° |
| 2026-05-05 17:20 | -23.06554 | -43.17330 | 17438 ft | 372 kts | 216° |
| 2026-05-05 17:20 | -23.08673 | -43.18985 | 18130 ft | 374 kts | 215° |
| 2026-05-05 17:20 | -23.10791 | -43.20641 | 18826 ft | 376 kts | 215° |
| 2026-05-05 17:21 | -23.12911 | -43.22300 | 19511 ft | 378 kts | 215° |
| 2026-05-05 17:21 | -23.15053 | -43.23974 | 20109 ft | 382 kts | 215° |
| 2026-05-05 17:21 | -23.17220 | -43.25668 | 20749 ft | 384 kts | 215° |
| 2026-05-05 17:22 | -23.21613 | -43.29107 | 21987 ft | 390 kts | 214° |
| 2026-05-05 17:22 | -23.23798 | -43.30818 | 22538 ft | 392 kts | 214° |
| 2026-05-05 17:22 | -23.26019 | -43.32559 | 23254 ft | 391 kts | 214° |
| 2026-05-05 17:22 | -23.28223 | -43.34289 | 24140 ft | 384 kts | 215° |
| 2026-05-05 17:23 | -23.30292 | -43.36082 | 24888 ft | 381 kts | 221° |
| 2026-05-05 17:23 | -23.32087 | -43.38179 | 25591 ft | 379 kts | 231° |
| 2026-05-05 17:23 | -23.33522 | -43.40597 | 26075 ft | 381 kts | 240° |